Time;durP1;ratioP1;P1;durP2;ratioP2;P2;SDS_P1;SDS_P2;PMS_P1;PMS_P2;Temp;Humidity;BMP_temperature;BMP_pressure;BME280_temperature;BME280_humidity;BME280_pressure;Samples;Min_cycle;Max_cycle;Signal;HPM_P1;HPM_P2
2021/11/14 00:00:48;;;;;;;33.78;15.30;;;;;;;1.31;96.78;101928.69;5039862;28;20037;-55
2021/11/14 00:03:14;;;;;;;33.20;14.05;;;;;;;1.39;97.15;101936.66;5036399;28;20366;-55
2021/11/14 00:05:41;;;;;;;32.20;14.48;;;;;;;1.44;97.15;101943.13;5039971;28;20021;-53
2021/11/14 00:08:07;;;;;;;28.60;12.70;;;;;;;1.49;97.21;101948.75;5032177;28;20033;-53
2021/11/14 00:10:35;;;;;;;31.20;13.88;;;;;;;1.48;96.92;101946.28;5037464;28;20039;-54
2021/11/14 00:13:01;;;;;;;38.15;14.88;;;;;;;1.49;96.85;101945.28;5038504;28;20032;-55
2021/11/14 00:15:27;;;;;;;37.33;15.35;;;;;;;1.49;96.87;101947.94;5038785;28;20086;-56
2021/11/14 00:17:53;;;;;;;54.03;18.35;;;;;;;1.45;96.85;101952.69;5032746;28;20025;-56
2021/11/14 00:20:19;;;;;;;51.40;16.67;;;;;;;1.40;97.17;101954.16;5038687;28;20036;-55
2021/11/14 00:22:44;;;;;;;41.38;16.30;;;;;;;1.39;97.32;101963.88;5037348;28;20377;-55
2021/11/14 00:25:13;;;;;;;43.17;17.25;;;;;;;1.47;97.37;101960.47;5034371;28;20551;-55
2021/11/14 00:27:39;;;;;;;44.00;17.35;;;;;;;1.43;97.46;101959.94;5042806;28;20028;-53
2021/11/14 00:30:05;;;;;;;33.55;14.70;;;;;;;1.51;97.58;101962.63;5037081;28;20033;-55
2021/11/14 00:32:31;;;;;;;31.23;14.35;;;;;;;1.58;97.85;101961.97;5039474;28;20398;-54
2021/11/14 00:34:57;;;;;;;31.30;15.38;;;;;;;1.63;97.63;101971.09;5040093;28;20037;-55
2021/11/14 00:37:22;;;;;;;43.40;16.35;;;;;;;1.61;97.84;101977.50;5033787;28;20375;-55
2021/11/14 00:39:48;;;;;;;45.70;16.15;;;;;;;1.72;98.03;101978.06;5039502;28;20033;-55
2021/11/14 00:42:14;;;;;;;43.78;17.05;;;;;;;1.81;97.59;101985.03;5039183;28;20036;-53
2021/11/14 00:44:39;;;;;;;59.80;17.23;;;;;;;1.81;97.44;101984.22;5018098;28;20033;-55
2021/11/14 00:47:06;;;;;;;48.50;15.15;;;;;;;1.84;97.25;101983.06;5037395;28;20455;-54
2021/11/14 00:49:32;;;;;;;74.40;19.52;;;;;;;1.89;97.01;101981.56;5039187;28;20414;-56
2021/11/14 00:51:57;;;;;;;100.25;22.33;;;;;;;1.90;96.75;101988.50;5041319;28;20035;-58
2021/11/14 00:54:22;;;;;;;125.60;25.08;;;;;;;1.89;97.00;101981.56;5040211;28;20044;-55
2021/11/14 00:56:48;;;;;;;215.73;36.47;;;;;;;1.73;97.20;101992.09;5039247;28;20024;-54
2021/11/14 00:59:14;;;;;;;79.22;20.38;;;;;;;1.58;98.70;101991.84;5038415;28;20045;-55
2021/11/14 01:01:39;;;;;;;94.38;24.13;;;;;;;1.67;98.34;101995.38;5042205;28;20078;-55
2021/11/14 01:04:05;;;;;;;118.03;26.88;;;;;;;1.76;98.17;102002.34;5035247;28;20403;-55
2021/11/14 01:06:30;;;;;;;81.07;22.65;;;;;;;1.83;98.37;102006.00;5034944;28;20024;-55
2021/11/14 01:08:56;;;;;;;102.60;25.85;;;;;;;1.90;98.35;102012.31;5037711;28;20182;-55
2021/11/14 01:11:21;;;;;;;88.97;25.25;;;;;;;1.95;97.87;102006.53;5040838;28;20406;-54
2021/11/14 01:13:47;;;;;;;97.20;25.02;;;;;;;1.96;98.06;101997.59;5038661;28;20037;-55
2021/11/14 01:16:18;;;;;;;88.43;24.42;;;;;;;2.01;97.78;101998.81;5033456;28;20379;-56
2021/11/14 01:18:44;;;;;;;138.63;29.80;;;;;;;1.96;97.56;101998.44;5038751;28;20045;-55
2021/11/14 01:21:12;;;;;;;73.85;24.13;;;;;;;1.92;97.92;102001.56;5032762;28;20036;-55
2021/11/14 01:23:40;;;;;;;54.90;19.45;;;;;;;1.96;97.67;102001.06;5034990;28;20472;-56
2021/11/14 01:26:06;;;;;;;83.43;23.02;;;;;;;2.03;97.78;102003.94;5036273;28;20037;-56
2021/11/14 01:28:32;;;;;;;92.95;24.95;;;;;;;2.07;97.86;102003.44;5034520;28;20028;-56
2021/11/14 01:30:58;;;;;;;89.72;23.88;;;;;;;2.12;97.71;102011.69;5033543;28;20483;-56
2021/11/14 01:33:26;;;;;;;70.03;22.27;;;;;;;2.18;97.55;102022.63;5036231;28;20029;-55
2021/11/14 01:35:55;;;;;;;64.28;21.83;;;;;;;2.18;97.60;102022.63;5036490;28;20056;-55
2021/11/14 01:38:21;;;;;;;113.95;28.60;;;;;;;2.15;97.43;102021.13;5038275;28;20028;-54
2021/11/14 01:40:52;;;;;;;87.47;23.05;;;;;;;2.19;97.06;102027.75;5032801;28;20423;-54
2021/11/14 01:43:21;;;;;;;108.30;25.63;;;;;;;2.18;97.40;102022.63;5036495;28;20566;-54
2021/11/14 01:45:47;;;;;;;180.32;31.63;;;;;;;2.20;97.35;102018.84;5034427;28;20396;-55
2021/11/14 01:48:12;;;;;;;148.85;28.85;;;;;;;2.18;97.45;102018.19;5033762;28;20017;-54
2021/11/14 01:50:39;;;;;;;218.88;34.28;;;;;;;2.21;97.14;102017.84;5038426;28;20021;-53
2021/11/14 01:53:05;;;;;;;79.20;23.55;;;;;;;2.18;97.45;102025.28;5033722;28;20048;-53
2021/11/14 01:55:32;;;;;;;161.20;30.95;;;;;;;2.02;97.87;102024.25;5036028;28;20052;-54
2021/11/14 01:57:58;;;;;;;198.27;35.72;;;;;;;2.00;98.18;102028.03;5034248;28;20318;-56
2021/11/14 02:00:38;;;;;;;98.20;24.98;;;;;;;2.05;98.23;102029.22;5034134;28;20041;-55
2021/11/14 02:03:04;;;;;;;138.07;27.02;;;;;;;2.04;98.35;102032.84;5040559;28;20392;-56
2021/11/14 02:05:32;;;;;;;177.55;28.67;;;;;;;2.03;98.49;102031.19;5036509;28;20035;-54
2021/11/14 02:08:01;;;;;;;105.82;23.70;;;;;;;2.01;98.60;102038.44;5036135;28;20338;-56
2021/11/14 02:10:29;;;;;;;150.57;24.52;;;;;;;2.06;98.67;102036.16;5037842;28;20029;-55
2021/11/14 02:12:55;;;;;;;346.15;43.80;;;;;;;2.08;98.52;102044.75;5039183;28;20113;-54
2021/11/14 02:15:20;;;;;;;129.18;23.17;;;;;;;2.06;98.06;102049.38;5037564;28;20553;-54
2021/11/14 02:17:47;;;;;;;132.00;24.80;;;;;;;2.02;98.62;102045.41;5041144;28;20051;-54
2021/11/14 02:20:14;;;;;;;111.00;22.23;;;;;;;2.03;98.47;102057.63;5041652;28;20024;-56
2021/11/14 02:22:40;;;;;;;148.90;28.42;;;;;;;2.00;98.76;102057.13;5035018;28;20034;-54
2021/11/14 02:25:08;;;;;;;279.05;40.47;;;;;;;2.06;99.03;102052.00;5040881;28;20036;-54
2021/11/14 02:27:34;;;;;;;280.83;40.60;;;;;;;2.10;99.06;102058.63;5040882;28;20870;-54
2021/11/14 02:30:01;;;;;;;196.70;30.85;;;;;;;2.17;99.17;102060.66;5042754;28;20041;-54
2021/11/14 02:32:26;;;;;;;271.35;40.10;;;;;;;2.24;99.19;102066.94;5042452;28;20264;-54
2021/11/14 02:34:52;;;;;;;276.92;39.85;;;;;;;2.20;99.31;102073.53;5038494;28;20452;-56
2021/11/14 02:37:17;;;;;;;269.88;41.13;;;;;;;2.15;99.84;102076.66;5038680;28;20032;-54
2021/11/14 02:39:43;;;;;;;276.25;40.55;;;;;;;2.23;99.69;102073.22;5043372;28;20036;-54
2021/11/14 02:42:09;;;;;;;86.60;22.42;;;;;;;2.28;99.35;102084.13;5039859;28;20449;-54
2021/11/14 02:44:34;;;;;;;159.48;27.88;;;;;;;2.29;99.41;102083.13;5038488;28;20039;-56
2021/11/14 02:47:00;;;;;;;50.42;20.02;;;;;;;2.36;99.39;102086.81;5039578;28;20035;-56
2021/11/14 02:49:25;;;;;;;56.53;21.40;;;;;;;2.46;99.13;102092.78;5040279;28;20105;-55
2021/11/14 02:51:51;;;;;;;136.02;26.60;;;;;;;2.49;99.25;102091.63;5037602;28;20272;-56
2021/11/14 02:54:17;;;;;;;292.48;37.20;;;;;;;2.51;99.21;102087.00;5038288;28;20041;-55
2021/11/14 02:56:43;;;;;;;274.58;36.92;;;;;;;2.53;98.85;102091.16;5038036;28;20026;-55
2021/11/14 02:59:10;;;;;;;384.40;46.38;;;;;;;2.52;99.08;102094.78;5041201;28;20447;-56
2021/11/14 03:01:41;;;;;;;418.42;50.08;;;;;;;2.53;99.12;102091.16;5041105;28;20037;-56
2021/11/14 03:04:19;;;;;;;387.73;45.38;;;;;;;2.56;98.98;102096.13;5037727;28;20125;-55
2021/11/14 03:06:46;;;;;;;229.77;31.98;;;;;;;2.64;99.07;102097.94;5041531;28;20070;-56
2021/11/14 03:09:12;;;;;;;218.93;32.95;;;;;;;2.67;99.05;102094.97;5038104;28;20082;-56
2021/11/14 03:11:37;;;;;;;168.10;29.15;;;;;;;2.69;98.75;102106.22;5038970;28;20430;-56
2021/11/14 03:14:04;;;;;;;179.38;31.48;;;;;;;2.69;98.69;102093.84;5039268;28;20426;-54
2021/11/14 03:16:32;;;;;;;277.55;39.90;;;;;;;2.70;98.82;102108.72;5040418;28;20037;-56
2021/11/14 03:18:58;;;;;;;121.18;28.52;;;;;;;2.76;98.71;102103.75;5040609;28;20048;-56
2021/11/14 03:21:24;;;;;;;217.48;36.53;;;;;;;2.77;99.05;102113.34;5046427;28;20025;-54
2021/11/14 03:23:50;;;;;;;312.17;48.33;;;;;;;2.83;98.94;102112.69;5041573;28;20509;-56
2021/11/14 03:26:16;;;;;;;121.55;30.95;;;;;;;2.86;99.14;102117.66;5041324;28;20399;-56
2021/11/14 03:28:43;;;;;;;199.18;35.85;;;;;;;2.88;98.77;102121.00;5043538;28;20503;-56
2021/11/14 03:31:08;;;;;;;335.25;47.42;;;;;;;2.84;98.70;102127.56;5045704;28;20028;-55
2021/11/14 03:33:34;;;;;;;123.32;27.50;;;;;;;2.77;99.35;102123.94;5043888;28;20040;-56
2021/11/14 03:36:04;;;;;;;171.65;32.63;;;;;;;2.84;98.88;102130.22;5041206;28;20024;-56
2021/11/14 03:38:37;;;;;;;134.93;32.33;;;;;;;2.89;99.09;102126.13;5038422;28;20495;-56
2021/11/14 03:41:04;;;;;;;100.57;26.40;;;;;;;2.98;99.13;102122.47;5042089;28;20541;-56
2021/11/14 03:43:30;;;;;;;142.10;27.98;;;;;;;3.02;98.76;102121.13;5039881;28;20067;-56
2021/11/14 03:45:57;;;;;;;214.50;37.20;;;;;;;3.03;99.14;102116.66;5039400;28;20146;-56
2021/11/14 03:48:23;;;;;;;248.52;42.13;;;;;;;3.00;98.53;102115.19;5043081;28;20025;-56
2021/11/14 03:50:50;;;;;;;192.20;38.15;;;;;;;3.02;98.41;102115.03;5038575;28;20331;-56
2021/11/14 03:53:15;;;;;;;219.13;38.22;;;;;;;3.08;98.61;102110.91;5039723;28;20025;-56
2021/11/14 03:55:41;;;;;;;102.18;28.30;;;;;;;3.14;99.00;102115.53;5042035;28;20035;-56
2021/11/14 03:58:07;;;;;;;129.73;29.13;;;;;;;3.13;99.04;102119.16;5044605;28;20133;-56
2021/11/14 04:00:40;;;;;;;224.52;38.88;;;;;;;3.12;99.11;102128.94;5039650;28;20041;-57
2021/11/14 04:03:06;;;;;;;153.95;33.05;;;;;;;3.13;99.14;102129.75;5041186;28;20042;-57
2021/11/14 04:05:32;;;;;;;151.90;30.38;;;;;;;3.19;99.10;102129.91;5040508;28;20035;-56
2021/11/14 04:07:59;;;;;;;243.40;42.90;;;;;;;3.12;99.25;102128.09;5040152;28;20037;-56
2021/11/14 04:10:26;;;;;;;266.17;48.28;;;;;;;2.93;100.00;102134.56;5036892;28;20163;-56
2021/11/14 04:12:52;;;;;;;288.25;51.28;;;;;;;2.99;100.00;102132.06;5039420;28;20111;-56
2021/11/14 04:15:18;;;;;;;187.68;36.42;;;;;;;3.08;100.00;102127.63;5040288;28;20123;-57
2021/11/14 04:17:44;;;;;;;176.75;40.75;;;;;;;3.16;100.00;102132.06;5037520;28;20040;-55
2021/11/14 04:20:12;;;;;;;241.07;40.50;;;;;;;3.23;100.00;102139.22;5038945;28;20171;-56
2021/11/14 04:22:38;;;;;;;245.95;45.70;;;;;;;3.30;100.00;102140.19;5034514;28;20029;-55
2021/11/14 04:25:07;;;;;;;130.52;34.20;;;;;;;3.28;100.00;102147.47;5044887;28;20517;-56
2021/11/14 04:27:32;;;;;;;202.38;41.63;;;;;;;3.30;100.00;102137.53;5041933;28;20047;-55
2021/11/14 04:29:58;;;;;;;162.95;38.35;;;;;;;3.32;100.00;102151.44;5038936;28;20025;-56
2021/11/14 04:32:23;;;;;;;131.00;33.47;;;;;;;3.38;100.00;102149.13;5044148;28;20051;-54
2021/11/14 04:34:49;;;;;;;133.20;34.00;;;;;;;3.43;100.00;102144.16;5038886;28;20025;-56
2021/11/14 04:37:15;;;;;;;332.02;54.80;;;;;;;3.47;99.80;102140.19;5036594;28;20180;-56
2021/11/14 04:39:40;;;;;;;367.05;58.30;;;;;;;3.48;99.97;102149.78;5035551;28;20044;-57
2021/11/14 04:42:07;;;;;;;524.38;75.55;;;;;;;3.51;99.93;102149.44;5039099;28;20033;-56
2021/11/14 04:44:35;;;;;;;121.85;33.22;;;;;;;3.51;99.65;102158.22;5045579;28;20507;-56
2021/11/14 04:47:01;;;;;;;149.05;36.33;;;;;;;3.54;99.66;102152.59;5035231;28;20037;-55
2021/11/14 04:49:26;;;;;;;160.90;37.95;;;;;;;3.56;99.53;102161.19;5039135;28;20030;-56
2021/11/14 04:51:52;;;;;;;244.90;45.10;;;;;;;3.58;99.65;102167.16;5037287;28;20363;-57
2021/11/14 04:54:19;;;;;;;241.60;43.65;;;;;;;3.54;99.09;102167.66;5035136;28;20070;-56
2021/11/14 04:56:45;;;;;;;127.65;34.47;;;;;;;3.53;99.86;102179.25;5037466;28;20502;-57
2021/11/14 04:59:11;;;;;;;110.78;31.33;;;;;;;3.56;99.74;102178.91;5036566;28;20183;-56
2021/11/14 05:01:37;;;;;;;112.18;32.70;;;;;;;3.61;99.82;102177.44;5037590;28;20021;-56
2021/11/14 05:04:03;;;;;;;105.20;30.92;;;;;;;3.68;99.58;102190.84;5036255;28;20033;-56
2021/11/14 05:06:29;;;;;;;140.15;34.92;;;;;;;3.66;99.54;102187.53;5040199;28;20040;-56
2021/11/14 05:08:54;;;;;;;138.75;34.53;;;;;;;3.66;99.26;102192.84;5036474;28;20021;-56
2021/11/14 05:11:20;;;;;;;176.93;36.55;;;;;;;3.67;99.23;102194.50;5045026;28;20078;-54
2021/11/14 05:13:45;;;;;;;281.45;48.70;;;;;;;3.67;98.94;102191.84;5036952;28;20275;-56
2021/11/14 05:16:11;;;;;;;139.13;37.50;;;;;;;3.67;99.57;102198.97;5039761;28;20025;-56
2021/11/14 05:18:37;;;;;;;126.72;34.78;;;;;;;3.68;99.11;102196.16;5036504;28;20033;-56
2021/11/14 05:21:03;;;;;;;298.05;52.70;;;;;;;3.70;99.46;102196.81;5040671;28;20483;-56
2021/11/14 05:23:28;;;;;;;319.48;54.42;;;;;;;3.72;99.17;102199.28;5037084;28;20062;-57
2021/11/14 05:25:54;;;;;;;217.98;43.85;;;;;;;3.73;99.25;102211.53;5035309;28;20435;-56
2021/11/14 05:28:20;;;;;;;128.95;35.42;;;;;;;3.75;99.07;102210.38;5037801;28;20587;-55
2021/11/14 05:30:45;;;;;;;224.00;45.35;;;;;;;3.75;99.18;102210.38;5038907;28;20037;-56
2021/11/14 05:33:12;;;;;;;230.52;43.78;;;;;;;3.77;99.41;102211.06;5041814;28;21110;-56
2021/11/14 05:35:38;;;;;;;189.73;42.17;;;;;;;3.73;99.31;102222.97;5038999;28;20059;-55
2021/11/14 05:38:04;;;;;;;95.25;31.88;;;;;;;3.77;99.03;102226.97;5038055;28;20305;-56
2021/11/14 05:40:30;;;;;;;182.85;44.05;;;;;;;3.78;99.15;102236.56;5039918;28;20147;-56
2021/11/14 05:42:55;;;;;;;318.33;54.05;;;;;;;3.77;99.27;102242.00;5039598;28;20104;-56
2021/11/14 05:45:21;;;;;;;122.03;34.40;;;;;;;3.75;99.16;102239.53;5039533;28;20025;-56
2021/11/14 05:47:46;;;;;;;178.48;43.33;;;;;;;3.75;99.20;102244.84;5038544;28;20067;-55
2021/11/14 05:50:12;;;;;;;187.30;43.35;;;;;;;3.71;99.46;102240.03;5038875;28;20472;-56
2021/11/14 05:52:38;;;;;;;140.75;42.42;;;;;;;3.70;99.20;102249.00;5033611;28;20024;-55
2021/11/14 05:55:05;;;;;;;129.10;38.50;;;;;;;3.71;99.54;102259.44;5037962;28;20029;-54
2021/11/14 05:57:38;;;;;;;163.40;44.88;;;;;;;3.74;99.71;102263.56;5040108;28;20056;-56
2021/11/14 06:00:10;;;;;;;148.20;40.92;;;;;;;3.81;99.72;102260.09;5035131;28;20091;-56
2021/11/14 06:07:33;;;;;;;101.30;36.20;;;;;;;3.89;99.76;102280.47;5035297;28;20771;-56
2021/11/14 06:10:01;;;;;;;117.22;36.40;;;;;;;3.92;99.59;102286.25;5041987;22;20052;-77
2021/11/14 06:12:27;;;;;;;114.78;35.92;;;;;;;3.96;99.52;102284.13;5044122;28;20643;-78
2021/11/14 06:14:53;;;;;;;104.72;34.40;;;;;;;4.01;99.15;102286.28;5040897;28;20112;-77
2021/11/14 06:17:20;;;;;;;152.20;41.28;;;;;;;4.04;99.25;102294.72;5043023;28;20155;-77
2021/11/14 06:19:49;;;;;;;125.57;39.45;;;;;;;4.05;98.56;102306.16;5043754;28;20037;-78
2021/11/14 06:22:16;;;;;;;125.63;38.22;;;;;;;4.06;98.65;102310.47;5043470;28;20033;-77
2021/11/14 06:24:43;;;;;;;120.55;39.33;;;;;;;4.07;98.95;102312.13;5040376;28;20041;-76
2021/11/14 06:27:09;;;;;;;155.38;43.50;;;;;;;4.09;98.68;102323.38;5044196;28;20089;-76
2021/11/14 06:29:35;;;;;;;157.93;44.17;;;;;;;4.07;99.16;102325.38;5042801;28;20425;-76
2021/11/14 06:32:00;;;;;;;144.35;44.25;;;;;;;4.10;99.04;102336.47;5044320;28;20024;-76
2021/11/14 06:34:26;;;;;;;132.80;44.40;;;;;;;4.15;99.29;102339.47;5039806;28;20017;-77
2021/11/14 06:36:52;;;;;;;158.90;44.30;;;;;;;4.19;99.14;102354.06;5041209;28;20060;-76
2021/11/14 06:39:18;;;;;;;161.60;45.58;;;;;;;4.21;99.42;102348.59;5041589;28;20881;-77
2021/11/14 06:41:44;;;;;;;195.10;50.90;;;;;;;4.27;99.07;102358.53;5041222;28;20449;-76
2021/11/14 06:44:09;;;;;;;133.55;42.42;;;;;;;4.31;98.89;102367.81;5044180;28;20029;-76
2021/11/14 06:46:35;;;;;;;149.82;45.25;;;;;;;4.33;98.79;102363.19;5042774;28;20045;-76
2021/11/14 06:49:00;;;;;;;141.00;43.35;;;;;;;4.37;98.96;102377.75;5043352;28;20086;-76
2021/11/14 06:51:26;;;;;;;182.05;48.13;;;;;;;4.39;98.99;102367.81;5046501;28;20075;-76
2021/11/14 06:53:51;;;;;;;172.27;49.67;;;;;;;4.42;99.17;102367.47;5040702;28;20021;-76
2021/11/14 06:56:17;;;;;;;142.38;43.08;;;;;;;4.46;98.84;102368.78;5046570;28;21960;-77
2021/11/14 06:58:43;;;;;;;123.40;41.67;;;;;;;4.50;98.57;102375.44;5044615;28;20099;-76
2021/11/14 07:01:08;;;;;;;136.38;42.25;;;;;;;4.54;98.95;102376.75;5047861;28;20172;-76
2021/11/14 07:03:34;;;;;;;135.15;42.42;;;;;;;4.53;98.86;102385.72;5046060;28;20020;-76
2021/11/14 07:06:00;;;;;;;105.80;39.83;;;;;;;4.58;99.04;102381.72;5044791;28;20032;-76
2021/11/14 07:08:25;;;;;;;111.35;39.50;;;;;;;4.62;98.67;102388.34;5048508;28;20032;-78
2021/11/14 07:10:52;;;;;;;144.73;41.63;;;;;;;4.62;99.24;102389.16;5058262;28;20117;-76
2021/11/14 07:13:18;;;;;;;137.50;43.78;;;;;;;4.65;99.03;102388.00;5043548;28;20053;-77
2021/11/14 07:15:43;;;;;;;151.43;44.35;;;;;;;4.67;98.78;102391.31;5042115;28;20053;-76
2021/11/14 07:18:09;;;;;;;126.60;42.00;;;;;;;4.71;98.43;102388.16;5046134;28;20651;-77
2021/11/14 07:20:35;;;;;;;125.95;40.13;;;;;;;4.75;98.65;102389.47;5045401;28;20025;-76
2021/11/14 07:23:00;;;;;;;139.90;44.15;;;;;;;4.76;98.52;102391.13;5046426;28;20052;-76
2021/11/14 07:25:26;;;;;;;160.40;47.78;;;;;;;4.80;98.50;102397.75;5048205;28;20028;-78
2021/11/14 07:27:53;;;;;;;145.27;45.55;;;;;;;4.83;98.05;102399.25;5043774;28;20025;-76
2021/11/14 07:30:21;;;;;;;133.07;42.30;;;;;;;4.86;98.08;102401.59;5047935;28;20037;-77
2021/11/14 07:32:46;;;;;;;121.07;40.97;;;;;;;4.88;98.65;102404.91;5045677;28;20033;-78
2021/11/14 07:35:15;;;;;;;123.25;41.95;;;;;;;4.91;98.27;102401.88;5046604;28;20080;-77
2021/11/14 07:37:41;;;;;;;124.95;41.42;;;;;;;4.95;98.31;102402.38;5045492;28;20051;-77
2021/11/14 07:40:09;;;;;;;142.43;44.05;;;;;;;4.98;97.91;102402.84;5044453;28;20025;-76
2021/11/14 07:42:37;;;;;;;130.20;44.97;;;;;;;5.02;98.17;102412.13;5048426;28;20028;-77
2021/11/14 07:45:05;;;;;;;141.30;43.10;;;;;;;5.05;97.92;102406.50;5042553;28;20116;-77
2021/11/14 07:47:30;;;;;;;135.90;44.58;;;;;;;5.08;97.62;102406.16;5045615;28;20646;-77
2021/11/14 07:49:56;;;;;;;135.40;44.25;;;;;;;5.13;97.93;102414.44;5043548;28;20028;-76
2021/11/14 07:52:21;;;;;;;155.30;46.80;;;;;;;5.15;97.72;102411.59;5041674;28;20476;-77
2021/11/14 07:54:47;;;;;;;156.82;47.53;;;;;;;5.18;97.64;102413.09;5044578;28;20116;-79
2021/11/14 07:57:12;;;;;;;151.07;48.08;;;;;;;5.19;97.77;102418.22;5042098;28;20020;-77
2021/11/14 07:59:38;;;;;;;147.25;47.30;;;;;;;5.23;97.96;102419.56;5041680;28;20025;-78
2021/11/14 08:02:05;;;;;;;126.00;43.58;;;;;;;5.28;97.73;102416.38;5044736;28;20087;-76
2021/11/14 08:04:30;;;;;;;150.07;47.65;;;;;;;5.30;98.10;102419.69;5044219;28;20068;-76
2021/11/14 08:06:58;;;;;;;182.38;54.45;;;;;;;5.31;98.15;102416.84;5037857;28;20052;-76
2021/11/14 08:09:24;;;;;;;173.13;52.47;;;;;;;5.36;98.20;102422.47;5042149;28;20017;-76
2021/11/14 08:11:49;;;;;;;210.55;57.92;;;;;;;5.36;98.61;102424.31;5046303;28;20541;-76
2021/11/14 08:14:15;;;;;;;183.55;53.15;;;;;;;5.38;98.48;102432.94;5043980;28;20105;-77
2021/11/14 08:16:41;;;;;;;168.65;51.50;;;;;;;5.40;98.96;102437.09;5043065;28;20017;-77
2021/11/14 08:19:06;;;;;;;179.48;54.58;;;;;;;5.42;98.40;102435.09;5043057;28;20091;-76
2021/11/14 08:21:32;;;;;;;171.55;52.53;;;;;;;5.46;98.32;102435.56;5041791;28;20021;-77
2021/11/14 08:23:57;;;;;;;161.70;52.97;;;;;;;5.45;99.14;102445.38;5042405;28;20018;-77
2021/11/14 08:26:23;;;;;;;196.30;54.25;;;;;;;5.50;99.03;102438.72;5060277;28;20541;-76
2021/11/14 08:28:48;;;;;;;164.25;51.00;;;;;;;5.55;98.74;102455.78;5043453;28;20024;-77
2021/11/14 08:31:20;;;;;;;176.13;51.55;;;;;;;5.58;98.70;102460.78;5043119;28;20029;-77
2021/11/14 08:33:46;;;;;;;176.30;54.10;;;;;;;5.62;98.79;102466.59;5041720;28;20025;-77
2021/11/14 08:36:11;;;;;;;152.60;48.40;;;;;;;5.67;98.59;102473.03;5045130;28;20033;-76
2021/11/14 08:38:37;;;;;;;151.88;47.72;;;;;;;5.69;98.84;102471.03;5042631;28;20408;-77
2021/11/14 08:41:03;;;;;;;170.60;52.17;;;;;;;5.72;98.46;102472.50;5040306;28;20029;-77
2021/11/14 08:43:28;;;;;;;161.20;51.38;;;;;;;5.78;98.30;102471.81;5036917;28;20017;-77
2021/11/14 08:45:53;;;;;;;160.52;51.78;;;;;;;5.82;98.17;102474.97;5046409;28;20100;-77
2021/11/14 08:48:19;;;;;;;164.48;51.83;;;;;;;5.83;98.43;102481.94;5046291;28;20670;-76
2021/11/14 08:50:46;;;;;;;159.25;48.65;;;;;;;5.87;97.98;102483.25;5042176;28;20087;-77
2021/11/14 08:53:13;;;;;;;157.30;48.83;;;;;;;5.89;98.01;102483.88;5041905;28;20018;-77
2021/11/14 08:55:39;;;;;;;161.85;51.58;;;;;;;5.90;97.99;102491.72;5041431;28;20083;-76
2021/11/14 08:58:04;;;;;;;165.70;50.63;;;;;;;5.94;98.03;102489.56;5044392;28;20757;-76
2021/11/14 09:00:32;;;;;;;151.15;50.00;;;;;;;5.96;97.82;102493.69;5039665;28;20029;-77
2021/11/14 09:02:59;;;;;;;144.77;47.17;;;;;;;5.95;97.58;102492.06;5042333;28;20107;-79
2021/11/14 09:05:27;;;;;;;173.32;52.53;;;;;;;5.98;98.18;102496.19;5038060;28;20099;-77
2021/11/14 09:07:53;;;;;;;151.15;48.10;;;;;;;5.97;98.10;102502.50;5044491;28;20059;-76
2021/11/14 09:10:21;;;;;;;168.15;50.67;;;;;;;5.98;98.02;102501.50;5045215;28;20498;-76
2021/11/14 09:12:47;;;;;;;166.48;51.17;;;;;;;6.02;98.23;102505.47;5042036;28;20045;-78
2021/11/14 09:15:13;;;;;;;170.77;52.97;;;;;;;6.06;98.17;102512.09;5042472;28;20032;-76
2021/11/14 09:17:39;;;;;;;151.00;49.35;;;;;;;6.07;98.56;102513.75;5045334;28;20025;-76
2021/11/14 09:20:07;;;;;;;175.55;52.95;;;;;;;6.15;98.11;102521.69;5046347;28;20029;-78
2021/11/14 09:22:34;;;;;;;137.52;45.83;;;;;;;6.23;97.95;102529.63;5039286;28;20017;-77
2021/11/14 09:24:59;;;;;;;141.38;46.45;;;;;;;6.27;97.72;102525.59;5046040;28;20094;-77
2021/11/14 09:27:25;;;;;;;145.88;47.58;;;;;;;6.33;97.53;102535.56;5044180;28;20503;-77
2021/11/14 09:29:50;;;;;;;146.93;48.47;;;;;;;6.39;97.63;102538.53;5044074;28;20025;-76
2021/11/14 09:32:16;;;;;;;138.38;46.65;;;;;;;6.46;97.22;102545.59;5040844;28;20020;-76
2021/11/14 09:34:42;;;;;;;124.57;44.78;;;;;;;6.49;97.15;102547.94;5039052;28;20116;-77
2021/11/14 09:37:07;;;;;;;129.98;44.55;;;;;;;6.56;96.81;102546.22;5043774;28;20036;-77
2021/11/14 09:39:33;;;;;;;132.48;45.92;;;;;;;6.57;96.07;102547.03;5041015;28;20158;-78
2021/11/14 09:42:00;;;;;;;150.35;47.55;;;;;;;6.58;96.51;102551.38;5045352;28;20040;-79
2021/11/14 09:44:26;;;;;;;141.65;47.85;;;;;;;6.64;96.35;102554.16;5043253;28;20274;-76
2021/11/14 09:46:54;;;;;;;134.23;45.63;;;;;;;6.66;96.07;102549.47;5040469;28;20108;-76
2021/11/14 09:49:25;;;;;;;133.70;44.13;;;;;;;6.74;96.26;102548.59;5040084;28;20108;-77
2021/11/14 09:51:53;;;;;;;131.55;44.45;;;;;;;6.79;95.46;102545.38;5043156;28;20025;-77
2021/11/14 09:54:20;;;;;;;126.43;43.05;;;;;;;6.83;95.62;102557.34;5047149;28;20139;-77
2021/11/14 09:56:46;;;;;;;125.53;43.65;;;;;;;6.89;95.12;102551.28;5042633;28;20116;-78
2021/11/14 09:59:12;;;;;;;123.15;42.67;;;;;;;6.95;94.89;102555.91;5041165;28;20029;-77
2021/11/14 10:01:38;;;;;;;122.63;44.33;;;;;;;6.96;94.72;102552.22;5040380;28;20024;-74
2021/11/14 10:04:04;;;;;;;124.63;40.80;;;;;;;6.95;94.24;102558.56;5045429;28;20378;-74
2021/11/14 10:06:30;;;;;;;126.38;43.83;;;;;;;6.96;94.32;102563.72;5041858;28;20048;-75
2021/11/14 10:08:56;;;;;;;122.97;42.83;;;;;;;7.00;94.62;102564.16;5042449;28;20690;-74
2021/11/14 10:11:32;;;;;;;126.95;44.00;;;;;;;7.01;94.46;102563.19;5034436;28;20021;-75
2021/11/14 10:13:57;;;;;;;120.13;41.55;;;;;;;7.04;94.40;102564.66;5041689;28;20032;-75
2021/11/14 10:16:27;;;;;;;106.00;40.25;;;;;;;7.10;94.38;102569.25;5038722;28;20024;-74
2021/11/14 10:18:59;;;;;;;120.78;41.58;;;;;;;7.13;94.29;102569.72;5057396;28;20398;-74
2021/11/14 10:21:28;;;;;;;116.20;39.97;;;;;;;7.19;93.89;102560.19;5037524;28;20147;-74
2021/11/14 10:23:54;;;;;;;119.32;39.72;;;;;;;7.18;93.49;102564.69;5040071;28;20032;-75
2021/11/14 10:26:20;;;;;;;113.68;37.65;;;;;;;7.21;93.28;102568.84;5043840;28;20040;-74
2021/11/14 10:28:47;;;;;;;109.95;38.70;;;;;;;7.25;93.12;102567.47;5041535;28;20029;-75
2021/11/14 10:31:19;;;;;;;114.25;38.53;;;;;;;7.32;93.75;102573.72;5042343;28;20021;-75
2021/11/14 10:33:45;;;;;;;108.78;41.75;;;;;;;7.42;93.05;102571.63;5041791;28;20021;-75
2021/11/14 10:36:11;;;;;;;107.32;37.85;;;;;;;7.49;92.85;102579.72;5056217;28;20035;-75
2021/11/14 10:38:38;;;;;;;106.85;38.45;;;;;;;7.54;92.77;102583.50;5041423;28;20032;-75
2021/11/14 10:41:07;;;;;;;105.28;38.85;;;;;;;7.56;92.02;102589.47;5039569;28;20048;-75
2021/11/14 10:43:37;;;;;;;98.68;35.85;;;;;;;7.58;91.65;102592.78;5052661;28;20104;-75
2021/11/14 10:46:04;;;;;;;108.32;38.20;;;;;;;7.59;91.58;102598.94;5040861;28;20049;-75
2021/11/14 10:48:31;;;;;;;97.53;35.28;;;;;;;7.59;91.55;102593.63;5034873;28;20044;-74
2021/11/14 10:51:00;;;;;;;103.25;36.92;;;;;;;7.56;91.52;102600.16;5040065;28;20590;-75
2021/11/14 10:53:28;;;;;;;95.82;34.38;;;;;;;7.53;91.34;102599.66;5040228;28;20024;-75
2021/11/14 10:55:56;;;;;;;100.43;34.85;;;;;;;7.51;91.66;102599.84;5041177;28;20040;-75
2021/11/14 10:58:24;;;;;;;98.55;36.13;;;;;;;7.51;91.35;102601.69;5038101;28;20040;-75
2021/11/14 11:00:53;;;;;;;99.63;35.67;;;;;;;7.48;91.31;102608.22;5039926;28;20021;-75
2021/11/14 11:03:20;;;;;;;98.15;37.28;;;;;;;7.49;91.46;102606.38;5039574;28;20032;-75
2021/11/14 11:05:46;;;;;;;100.25;36.85;;;;;;;7.48;91.76;102610.88;5037710;28;20036;-75
2021/11/14 11:08:18;;;;;;;106.25;36.10;;;;;;;7.50;91.49;102606.19;5033813;28;20678;-75
2021/11/14 11:10:50;;;;;;;102.72;35.72;;;;;;;7.50;91.17;102616.88;5037207;28;20040;-75